createdAt,value
2019-01-27T00:02:03.105Z,83.86
2019-01-27T00:04:32.237Z,84.47
2019-01-27T00:07:01.373Z,85.01
2019-01-27T00:09:30.469Z,85.77
2019-01-27T00:11:59.608Z,85.98
2019-01-27T00:14:28.669Z,85.06
2019-01-27T00:16:57.763Z,85.66
2019-01-27T00:19:26.923Z,85.93
2019-01-27T00:21:56.075Z,85.50
2019-01-27T00:24:25.210Z,85.38
2019-01-27T00:26:54.361Z,85.29
2019-01-27T00:29:23.675Z,85.50
2019-01-27T00:31:52.802Z,85.50
2019-01-27T00:34:21.956Z,85.27
2019-01-27T00:36:51.089Z,85.27
2019-01-27T00:39:20.204Z,84.72
2019-01-27T00:41:49.265Z,83.91
2019-01-27T00:44:18.414Z,84.44
2019-01-27T00:46:47.584Z,84.62
2019-01-27T00:49:16.658Z,84.28
2019-01-27T00:51:45.789Z,85.00
2019-01-27T00:54:14.909Z,84.33
2019-01-27T00:56:44.046Z,84.40
2019-01-27T00:59:13.129Z,84.68
2019-01-27T01:01:42.219Z,85.42
2019-01-27T01:04:11.533Z,85.81
2019-01-27T01:06:40.963Z,85.53
2019-01-27T01:09:11.526Z,85.57
2019-01-27T01:11:40.672Z,86.20
2019-01-27T01:14:09.738Z,85.46
2019-01-27T01:16:38.817Z,85.73
2019-01-27T01:19:07.967Z,86.29
2019-01-27T01:21:37.091Z,86.13
2019-01-27T01:24:06.195Z,86.48
2019-01-27T01:26:35.272Z,85.51
2019-01-27T01:29:04.452Z,86.23
2019-01-27T01:31:33.527Z,86.20
2019-01-27T01:34:02.626Z,87.24
2019-01-27T01:36:31.801Z,88.08
2019-01-27T01:39:00.890Z,89.48
2019-01-27T01:41:30.009Z,88.99
2019-01-27T01:43:59.168Z,89.79
2019-01-27T01:46:28.327Z,90.07
2019-01-27T01:48:57.476Z,90.36
2019-01-27T01:51:26.581Z,90.57
2019-01-27T01:53:55.651Z,91.07
2019-01-27T01:56:24.774Z,91.47
2019-01-27T01:58:53.940Z,91.32
2019-01-27T02:01:23.095Z,91.39
2019-01-27T02:03:52.229Z,91.68
2019-01-27T02:06:21.561Z,91.55
2019-01-27T02:08:50.733Z,91.49
2019-01-27T02:11:19.854Z,90.96
2019-01-27T02:13:49.041Z,90.76
2019-01-27T02:16:18.160Z,90.83
2019-01-27T02:18:47.312Z,90.51
2019-01-27T02:21:16.463Z,90.33
2019-01-27T02:23:45.540Z,90.43
2019-01-27T02:26:14.642Z,90.33
2019-01-27T02:28:43.852Z,90.84
2019-01-27T02:31:12.962Z,90.86
2019-01-27T02:33:42.078Z,90.17
2019-01-27T02:36:11.200Z,89.81
2019-01-27T02:38:40.270Z,89.60
2019-01-27T02:41:09.342Z,90.15
2019-01-27T02:43:38.519Z,89.87
2019-01-27T02:46:07.819Z,90.98
2019-01-27T02:48:36.899Z,90.30
2019-01-27T02:51:06.040Z,90.59
2019-01-27T02:53:35.205Z,90.00
2019-01-27T02:56:04.496Z,91.30
2019-01-27T02:58:33.631Z,91.67
2019-01-27T03:01:02.778Z,92.16
2019-01-27T03:03:31.826Z,92.09
2019-01-27T03:06:23.166Z,92.35
2019-01-27T03:08:55.505Z,92.55
2019-01-27T03:11:24.589Z,92.55
2019-01-27T03:13:53.735Z,92.25
2019-01-27T03:16:22.840Z,92.27
2019-01-27T03:18:51.932Z,92.39
2019-01-27T03:21:21.119Z,92.70
2019-01-27T03:23:50.222Z,92.69
2019-01-27T03:26:19.358Z,93.02
2019-01-27T03:28:48.471Z,93.18
2019-01-27T03:31:17.634Z,92.65
2019-01-27T03:33:46.749Z,92.91
2019-01-27T03:36:15.844Z,92.91
2019-01-27T03:38:44.996Z,93.10
2019-01-27T03:41:14.099Z,93.18
2019-01-27T03:43:43.213Z,93.32
2019-01-27T03:46:12.298Z,93.47
2019-01-27T03:48:41.445Z,92.98
2019-01-27T03:51:10.564Z,93.02
2019-01-27T03:53:39.669Z,92.90
2019-01-27T03:56:08.740Z,92.91
2019-01-27T03:58:37.905Z,93.20
2019-01-27T04:01:07.178Z,93.28
2019-01-27T04:03:36.255Z,93.33
2019-01-27T04:06:05.380Z,93.46
2019-01-27T04:08:34.761Z,93.15
2019-01-27T04:11:03.816Z,93.16
2019-01-27T04:13:32.962Z,93.02
2019-01-27T04:16:02.141Z,93.00
2019-01-27T04:18:31.267Z,92.85
2019-01-27T04:21:00.363Z,93.11
2019-01-27T04:23:29.518Z,93.02
2019-01-27T04:25:58.754Z,93.09
2019-01-27T04:28:27.825Z,93.58
2019-01-27T04:30:56.985Z,93.57
2019-01-27T04:33:26.047Z,93.46
2019-01-27T04:35:55.129Z,93.69
2019-01-27T04:38:24.258Z,93.19
2019-01-27T04:40:53.433Z,93.57
2019-01-27T04:43:22.536Z,93.73
2019-01-27T04:45:51.622Z,93.82
2019-01-27T04:48:20.811Z,93.99
2019-01-27T04:50:49.912Z,94.12
2019-01-27T04:53:19.056Z,94.21
2019-01-27T04:55:48.135Z,93.91
2019-01-27T04:58:17.297Z,93.88
2019-01-27T05:00:46.401Z,93.91
2019-01-27T05:03:40.215Z,93.92
2019-01-27T05:06:09.319Z,93.98
2019-01-27T05:08:38.507Z,94.07
2019-01-27T05:11:07.612Z,93.90
2019-01-27T05:13:36.708Z,94.01
2019-01-27T05:16:06.182Z,94.05
2019-01-27T05:18:35.246Z,94.04
2019-01-27T05:21:04.338Z,94.17
2019-01-27T05:23:33.469Z,93.97
2019-01-27T05:26:02.586Z,94.00
2019-01-27T05:28:31.706Z,94.21
2019-01-27T05:31:00.849Z,94.11
2019-01-27T05:33:29.934Z,94.05
2019-01-27T05:35:59.003Z,93.86
2019-01-27T05:38:28.151Z,93.81
2019-01-27T05:40:57.319Z,94.06
2019-01-27T05:43:26.415Z,94.04
2019-01-27T05:45:55.472Z,94.28
2019-01-27T05:48:24.673Z,94.28
2019-01-27T05:50:53.739Z,94.10
2019-01-27T05:53:22.857Z,94.24
2019-01-27T05:55:52.006Z,94.36
2019-01-27T05:58:21.053Z,94.40
2019-01-27T06:00:50.134Z,94.51
2019-01-27T06:03:19.264Z,94.48
2019-01-27T06:05:48.373Z,94.52
2019-01-27T06:08:17.453Z,94.57
2019-01-27T06:10:46.644Z,94.50
2019-01-27T06:13:15.811Z,94.60
2019-01-27T06:15:44.899Z,94.69
2019-01-27T06:18:14.018Z,94.78
2019-01-27T06:20:43.119Z,94.72
2019-01-27T06:23:12.275Z,94.75
2019-01-27T06:25:41.344Z,94.73
2019-01-27T06:28:10.427Z,94.77
2019-01-27T06:30:39.798Z,94.78
2019-01-27T06:33:32.339Z,94.86
2019-01-27T06:36:01.484Z,94.86
2019-01-27T06:38:30.566Z,94.81
2019-01-27T06:40:59.694Z,94.86
2019-01-27T06:43:28.822Z,94.85
2019-01-27T06:45:57.956Z,94.85
2019-01-27T06:48:27.038Z,94.83
2019-01-27T06:50:56.157Z,94.79
2019-01-27T06:53:25.285Z,94.81
2019-01-27T06:55:54.645Z,94.88
2019-01-27T06:58:26.851Z,94.75
2019-01-27T07:01:27.032Z,94.78
2019-01-27T07:04:16.278Z,94.67
2019-01-27T07:06:58.970Z,94.70
2019-01-27T07:09:49.430Z,94.78
2019-01-27T07:12:34.314Z,94.60
2019-01-27T07:15:22.447Z,94.64
2019-01-27T07:18:16.280Z,94.73
2019-01-27T07:20:57.472Z,94.63
2019-01-27T07:23:43.894Z,94.66
2019-01-27T07:26:35.117Z,94.70
2019-01-27T07:29:28.970Z,94.79
2019-01-27T07:32:10.992Z,94.75
2019-01-27T07:35:11.202Z,94.62
2019-01-27T07:37:47.388Z,94.60
2019-01-27T07:40:24.649Z,94.62
2019-01-27T07:43:06.096Z,94.71
2019-01-27T07:45:59.996Z,94.69
2019-01-27T07:48:53.368Z,94.84
2019-01-27T07:51:41.799Z,94.72
2019-01-27T07:54:39.083Z,94.71
2019-01-27T07:57:24.234Z,94.58
2019-01-27T08:00:04.074Z,94.66
2019-01-27T08:02:52.092Z,94.55
2019-01-27T08:05:38.541Z,94.58
2019-01-27T08:08:26.632Z,94.52
2019-01-27T08:11:26.514Z,94.56
2019-01-27T08:14:09.996Z,94.71
2019-01-27T08:16:58.140Z,94.59
2019-01-27T08:19:44.638Z,94.64
2019-01-27T08:22:31.304Z,94.45
2019-01-27T08:25:17.892Z,94.46
2019-01-27T08:28:02.581Z,94.44
2019-01-27T08:30:49.240Z,94.45
2019-01-27T08:33:39.865Z,94.46
2019-01-27T08:36:30.851Z,94.41
2019-01-27T08:39:28.096Z,94.57
2019-01-27T08:42:14.930Z,94.41
2019-01-27T08:45:07.765Z,94.48
2019-01-27T08:47:36.918Z,94.27
2019-01-27T08:50:09.259Z,94.29
2019-01-27T08:52:38.381Z,94.31
2019-01-27T08:55:08.500Z,94.30
2019-01-27T08:57:37.631Z,94.21
2019-01-27T09:00:08.371Z,94.17
2019-01-27T09:03:01.318Z,94.25
2019-01-27T09:05:41.134Z,94.28
2019-01-27T09:08:44.461Z,94.28
2019-01-27T09:11:41.662Z,94.29
2019-01-27T09:14:30.366Z,94.30
2019-01-27T09:17:24.427Z,94.30
2019-01-27T09:20:06.117Z,94.26
2019-01-27T09:22:54.289Z,94.53
2019-01-27T09:25:40.767Z,94.41
2019-01-27T09:28:18.438Z,94.36
2019-01-27T09:31:06.500Z,94.34
2019-01-27T09:33:45.758Z,94.44
2019-01-27T09:36:33.819Z,94.37
2019-01-27T09:39:34.138Z,94.33
2019-01-27T09:42:27.369Z,94.31
2019-01-27T09:45:21.314Z,94.15
2019-01-27T09:48:18.233Z,94.31
2019-01-27T09:51:04.904Z,94.37
2019-01-27T09:53:58.703Z,94.33
2019-01-27T09:56:49.907Z,94.47
2019-01-27T09:59:32.419Z,94.54
2019-01-27T10:02:11.924Z,94.73
2019-01-27T10:05:00.003Z,94.82
2019-01-27T10:07:46.633Z,94.84
2019-01-27T10:10:25.667Z,94.79
2019-01-27T10:13:12.478Z,94.68
2019-01-27T10:15:55.264Z,94.71
2019-01-27T10:18:43.320Z,94.80
2019-01-27T10:21:37.269Z,94.49
2019-01-27T10:24:22.562Z,94.28
2019-01-27T10:27:05.774Z,94.31
2019-01-27T10:29:59.835Z,94.56
2019-01-27T10:32:37.060Z,94.51
2019-01-27T10:35:23.932Z,94.53
2019-01-27T10:38:12.207Z,94.59
2019-01-27T10:41:03.196Z,94.63
2019-01-27T10:43:41.435Z,94.72
2019-01-27T10:46:19.442Z,94.73
2019-01-27T10:49:01.436Z,94.55
2019-01-27T10:51:48.063Z,94.47
2019-01-27T10:54:30.184Z,94.80
2019-01-27T10:57:21.234Z,94.59
2019-01-27T11:00:02.066Z,94.81
2019-01-27T11:02:48.984Z,94.83
2019-01-27T11:05:48.960Z,94.72
2019-01-27T11:08:51.930Z,94.59
2019-01-27T11:11:36.844Z,94.66
2019-01-27T11:14:23.582Z,94.57
2019-01-27T11:17:21.312Z,94.76
2019-01-27T11:19:57.502Z,94.98
2019-01-27T11:22:45.159Z,95.03
2019-01-27T11:25:31.873Z,94.96
2019-01-27T11:28:18.789Z,94.57
2019-01-27T11:31:06.860Z,94.43
2019-01-27T11:33:56.087Z,94.44
2019-01-27T11:36:34.722Z,94.31
2019-01-27T11:39:18.713Z,94.26
2019-01-27T11:42:18.741Z,94.04
2019-01-27T11:45:10.572Z,93.94
2019-01-27T11:47:59.212Z,93.94
2019-01-27T11:50:50.331Z,94.09
2019-01-27T11:53:19.471Z,94.08
2019-01-27T11:55:48.586Z,94.25
2019-01-27T11:58:17.671Z,94.46
2019-01-27T12:00:50.821Z,94.46
2019-01-27T12:03:20.044Z,94.58
2019-01-27T12:05:49.228Z,94.67
2019-01-27T12:08:18.319Z,94.67
2019-01-27T12:10:47.439Z,94.61
2019-01-27T12:13:16.603Z,94.75
2019-01-27T12:15:45.738Z,94.72
2019-01-27T12:18:14.998Z,94.70
2019-01-27T12:20:44.831Z,94.39
2019-01-27T12:23:14.442Z,94.24
2019-01-27T12:25:43.517Z,94.03
2019-01-27T12:28:12.745Z,94.06
2019-01-27T12:30:41.976Z,94.04
2019-01-27T12:33:11.109Z,94.21
2019-01-27T12:35:40.264Z,94.44
2019-01-27T12:38:09.441Z,94.38
2019-01-27T12:40:38.542Z,94.52
2019-01-27T12:43:07.700Z,94.74
2019-01-27T12:45:36.895Z,94.74
2019-01-27T12:48:06.009Z,94.78
2019-01-27T12:50:35.138Z,94.66
2019-01-27T12:53:04.347Z,94.41
2019-01-27T12:55:33.481Z,94.42
2019-01-27T12:58:02.536Z,94.43
2019-01-27T13:00:37.676Z,94.17
2019-01-27T13:03:06.751Z,94.39
2019-01-27T13:05:35.887Z,94.12
2019-01-27T13:08:05.022Z,94.28
2019-01-27T13:10:34.161Z,94.47
2019-01-27T13:13:03.264Z,94.41
2019-01-27T13:15:32.390Z,94.53
2019-01-27T13:18:01.585Z,94.49
2019-01-27T13:20:30.843Z,94.65
2019-01-27T13:22:59.938Z,94.47
2019-01-27T13:25:29.165Z,94.38
2019-01-27T13:27:58.256Z,94.25
2019-01-27T13:30:27.391Z,94.20
2019-01-27T13:32:56.456Z,93.88
2019-01-27T13:35:25.583Z,93.88
2019-01-27T13:37:54.713Z,93.87
2019-01-27T13:40:23.827Z,94.12
2019-01-27T13:42:52.956Z,94.18
2019-01-27T13:45:24.139Z,94.11
2019-01-27T13:47:53.233Z,94.42
2019-01-27T13:50:22.303Z,94.63
2019-01-27T13:52:51.443Z,94.81
2019-01-27T13:55:22.837Z,94.83
2019-01-27T13:57:51.904Z,94.74
2019-01-27T14:00:28.734Z,94.84
2019-01-27T14:02:57.842Z,94.75
2019-01-27T14:05:26.925Z,94.71
2019-01-27T14:07:56.043Z,94.74
2019-01-27T14:10:26.177Z,94.91
2019-01-27T14:12:55.331Z,94.87
2019-01-27T14:15:26.302Z,94.64
2019-01-27T14:17:55.486Z,94.72
2019-01-27T14:20:24.717Z,94.73
2019-01-27T14:22:54.056Z,94.79
2019-01-27T14:25:24.588Z,94.75
2019-01-27T14:27:53.666Z,94.83
2019-01-27T14:30:25.097Z,94.78
2019-01-27T14:32:54.357Z,94.73
2019-01-27T14:35:23.484Z,94.80
2019-01-27T14:37:52.555Z,94.81
2019-01-27T14:40:23.504Z,94.85
2019-01-27T14:42:52.648Z,94.78
2019-01-27T14:45:23.558Z,94.83
2019-01-27T14:47:52.666Z,94.76
2019-01-27T14:50:27.458Z,94.90
2019-01-27T14:52:56.639Z,95.05
2019-01-27T14:55:25.751Z,95.08
2019-01-27T14:57:54.840Z,95.06
2019-01-27T15:00:26.563Z,95.20
2019-01-27T15:02:55.644Z,94.98
2019-01-27T15:05:24.767Z,94.87
2019-01-27T15:07:53.888Z,94.86
2019-01-27T15:10:23.020Z,95.14
2019-01-27T15:12:52.100Z,94.86
2019-01-27T15:15:22.053Z,94.93
2019-01-27T15:17:51.274Z,94.92
2019-01-27T15:20:25.845Z,94.87
2019-01-27T15:22:55.100Z,94.77
2019-01-27T15:25:24.254Z,94.69
2019-01-27T15:27:53.333Z,94.70
2019-01-27T15:30:27.539Z,94.77
2019-01-27T15:32:56.700Z,94.84
2019-01-27T15:35:25.818Z,94.92
2019-01-27T15:37:54.880Z,94.89
2019-01-27T15:40:24.004Z,94.74
2019-01-27T15:42:53.110Z,94.72
2019-01-27T15:45:26.649Z,95.00
2019-01-27T15:47:55.923Z,95.01
2019-01-27T15:50:27.220Z,95.02
2019-01-27T15:52:56.320Z,94.99
2019-01-27T15:55:25.435Z,95.04
2019-01-27T15:57:54.578Z,94.99
2019-01-27T16:00:25.466Z,95.05
2019-01-27T16:02:54.579Z,94.98
2019-01-27T16:05:23.656Z,94.82
2019-01-27T16:07:52.835Z,94.80
2019-01-27T16:10:22.962Z,94.81
2019-01-27T16:12:51.978Z,94.85
2019-01-27T16:15:26.231Z,94.95
2019-01-27T16:17:55.451Z,94.93
2019-01-27T16:20:24.758Z,94.76
2019-01-27T16:23:03.860Z,94.83
2019-01-27T16:25:33.005Z,94.60
2019-01-27T16:28:02.128Z,94.62
2019-01-27T16:30:53.198Z,94.72
2019-01-27T16:33:35.099Z,94.81
2019-01-27T16:36:04.229Z,94.74
2019-01-27T16:38:33.283Z,94.81
2019-01-27T16:41:02.424Z,94.73
2019-01-27T16:43:31.499Z,94.68
2019-01-27T16:46:00.640Z,94.78
2019-01-27T16:48:29.741Z,94.91
2019-01-27T16:50:58.860Z,94.86
2019-01-27T16:53:27.976Z,94.85
2019-01-27T16:55:57.101Z,94.63
2019-01-27T16:58:26.264Z,94.75
2019-01-27T17:00:55.924Z,94.47
2019-01-27T17:03:25.161Z,94.06
2019-01-27T17:05:54.270Z,94.06
2019-01-27T17:08:23.317Z,94.27
2019-01-27T17:10:52.414Z,94.11
2019-01-27T17:13:21.583Z,93.93
2019-01-27T17:15:50.744Z,94.26
2019-01-27T17:18:19.835Z,94.25
2019-01-27T17:20:49.012Z,94.24
2019-01-27T17:23:18.370Z,94.41
2019-01-27T17:25:47.423Z,94.42
2019-01-27T17:28:16.622Z,94.42
2019-01-27T17:30:45.753Z,94.53
2019-01-27T17:33:14.882Z,94.72
2019-01-27T17:35:43.955Z,94.81
2019-01-27T17:38:13.074Z,94.56
2019-01-27T17:40:42.152Z,94.51
2019-01-27T17:43:11.270Z,94.59
2019-01-27T17:45:40.445Z,94.51
2019-01-27T17:48:09.515Z,94.79
2019-01-27T17:50:38.666Z,94.83
2019-01-27T17:53:07.795Z,94.98
2019-01-27T17:55:40.525Z,94.91
2019-01-27T17:58:29.301Z,94.84
2019-01-27T18:01:16.073Z,94.97
2019-01-27T18:04:16.290Z,95.14
2019-01-27T18:07:07.332Z,95.26
2019-01-27T18:10:10.561Z,95.40
2019-01-27T18:12:44.155Z,95.26
2019-01-27T18:15:13.251Z,95.33
2019-01-27T18:17:42.352Z,95.38
2019-01-27T18:20:13.427Z,95.56
2019-01-27T18:22:42.556Z,95.66
2019-01-27T18:25:12.969Z,95.56
2019-01-27T18:27:42.090Z,95.73
2019-01-27T18:30:15.313Z,95.94
2019-01-27T18:32:44.403Z,95.97
2019-01-27T18:35:13.540Z,96.05
2019-01-27T18:37:42.935Z,96.05
2019-01-27T18:40:12.216Z,95.95
2019-01-27T18:42:41.365Z,96.01
2019-01-27T18:45:11.848Z,96.03
2019-01-27T18:47:40.973Z,96.05
2019-01-27T18:50:12.068Z,96.07
2019-01-27T18:52:41.135Z,96.20
2019-01-27T18:55:32.223Z,96.26
2019-01-27T18:58:18.720Z,96.24
2019-01-27T19:01:18.930Z,96.31
2019-01-27T19:04:03.634Z,96.34
2019-01-27T19:06:42.911Z,96.37
2019-01-27T19:09:30.919Z,96.46
2019-01-27T19:12:24.923Z,96.41
2019-01-27T19:15:11.668Z,96.38
2019-01-27T19:17:58.431Z,96.37
2019-01-27T19:20:35.681Z,96.39
2019-01-27T19:23:23.844Z,96.37
2019-01-27T19:26:06.204Z,96.31
2019-01-27T19:28:51.319Z,96.18
2019-01-27T19:31:36.692Z,96.15
2019-01-27T19:34:30.931Z,96.12
2019-01-27T19:37:31.187Z,96.15
2019-01-27T19:40:14.563Z,96.10
2019-01-27T19:42:53.793Z,96.14
2019-01-27T19:45:31.824Z,96.07
2019-01-27T19:48:18.583Z,96.03
2019-01-27T19:51:06.631Z,96.08
2019-01-27T19:53:45.530Z,96.16
2019-01-27T19:56:42.787Z,96.07
2019-01-27T19:59:34.047Z,95.97
2019-01-27T20:02:36.985Z,95.90
2019-01-27T20:05:32.106Z,95.89
2019-01-27T20:08:35.108Z,96.10
2019-01-27T20:11:24.561Z,96.05
2019-01-27T20:14:02.688Z,96.04
2019-01-27T20:16:49.088Z,96.00
2019-01-27T20:19:23.313Z,96.02
2019-01-27T20:22:26.535Z,95.93
2019-01-27T20:25:29.483Z,96.08
2019-01-27T20:28:16.100Z,96.12
2019-01-27T20:31:19.265Z,96.12
2019-01-27T20:33:58.300Z,96.11
2019-01-27T20:36:49.185Z,96.14
2019-01-27T20:39:52.165Z,96.03
2019-01-27T20:42:33.858Z,95.92
2019-01-27T20:45:08.498Z,95.80
2019-01-27T20:48:08.633Z,95.78
2019-01-27T20:50:59.712Z,95.70
2019-01-27T20:53:46.157Z,95.76
2019-01-27T20:56:40.320Z,95.80
2019-01-27T20:59:31.170Z,95.82
2019-01-27T21:02:16.686Z,95.79
2019-01-27T21:05:03.121Z,95.92
2019-01-27T21:07:40.649Z,95.87
2019-01-27T21:10:33.002Z,95.76
2019-01-27T21:13:14.146Z,95.73
2019-01-27T21:15:52.339Z,95.78
2019-01-27T21:18:29.078Z,95.79
2019-01-27T21:20:58.344Z,95.95
2019-01-27T21:23:27.464Z,95.95
2019-01-27T21:25:56.529Z,95.84
2019-01-27T21:28:26.027Z,95.86
2019-01-27T21:30:55.222Z,95.90
2019-01-27T21:33:24.343Z,96.06
2019-01-27T21:35:53.425Z,96.08
2019-01-27T21:38:22.520Z,96.04
2019-01-27T21:40:51.721Z,96.03
2019-01-27T21:43:20.980Z,95.80
2019-01-27T21:45:50.076Z,95.78
2019-01-27T21:48:19.217Z,95.74
2019-01-27T21:50:48.357Z,95.75
2019-01-27T21:53:17.467Z,95.66
2019-01-27T21:55:46.593Z,95.54
2019-01-27T21:58:15.950Z,95.61
2019-01-27T22:00:45.008Z,95.70
2019-01-27T22:03:14.112Z,95.79
2019-01-27T22:05:43.218Z,95.93
2019-01-27T22:08:12.464Z,95.98
2019-01-27T22:10:41.576Z,95.76
2019-01-27T22:13:10.746Z,95.94
2019-01-27T22:15:40.979Z,96.00
2019-01-27T22:18:10.095Z,96.12
2019-01-27T22:20:39.181Z,96.02
2019-01-27T22:23:08.336Z,95.83
2019-01-27T22:25:37.743Z,95.79
2019-01-27T22:28:06.866Z,95.84
2019-01-27T22:30:36.321Z,95.66
2019-01-27T22:33:05.424Z,95.88
2019-01-27T22:35:34.489Z,95.88
2019-01-27T22:38:03.584Z,95.95
2019-01-27T22:40:32.706Z,95.80
2019-01-27T22:43:01.836Z,95.78
2019-01-27T22:45:31.041Z,95.93
2019-01-27T22:48:00.491Z,96.02
2019-01-27T22:50:29.695Z,96.00
2019-01-27T22:52:58.958Z,96.04
2019-01-27T22:55:28.064Z,96.04
2019-01-27T22:57:57.211Z,96.02
2019-01-27T23:00:56.088Z,95.98
2019-01-27T23:03:25.582Z,96.02
2019-01-27T23:05:54.712Z,95.96
2019-01-27T23:08:23.812Z,95.91
2019-01-27T23:10:52.999Z,96.03
2019-01-27T23:13:22.699Z,96.08
2019-01-27T23:15:51.859Z,95.97
2019-01-27T23:18:21.064Z,96.05
2019-01-27T23:20:50.193Z,95.98
2019-01-27T23:23:19.299Z,95.91
2019-01-27T23:25:50.323Z,95.98
2019-01-27T23:28:19.403Z,95.82
2019-01-27T23:30:48.643Z,95.93
2019-01-27T23:33:18.009Z,96.01
2019-01-27T23:35:47.292Z,95.86
2019-01-27T23:38:16.563Z,95.77
2019-01-27T23:40:46.015Z,95.77
2019-01-27T23:43:15.443Z,95.80
2019-01-27T23:45:44.617Z,95.85
2019-01-27T23:48:13.843Z,95.94
2019-01-27T23:50:43.047Z,95.93
2019-01-27T23:53:12.163Z,95.92
2019-01-27T23:55:41.687Z,96.03
2019-01-27T23:58:11.245Z,95.97
